Detall de PIREP

Printer-friendly versionPDF version

[2012/09/15 15:31:00]
Flight IATA:CT1001
Pilot Number:026
Company ICAO:CAT
Aircraft Type:F50/A
PAX:50
Aircraft Registration:PAOB
Departing Airport: LICJ
Destination Airport: LICG
Alternate Airport:LICJ
Online: VATSIM
Route:TRP L869 MEGAN M740 ROBET
Flight Level:F110
No Slew and time accel
No pause
Crash detect
Detect pilot in Cockpit between each 30 and 45 minutes
15:31 Zero fuel Weight: 38881 Lbs, Fuel Weight: 2599 Lbs
15:31 VATSIM:LICJ 151450Z 36013KT 9999 SCT025 23/17 Q1009
15:31 VATSIM:LICG 151455Z 33015KT 9999 SCT020 SCT030 23/19 Q1010
15:32 VOICE CATALONIAN / MEDITERRANEAN ODYSSEY LEG3
15:34 Parking Brakes off
15:41 Take-off
15:41 Take off Weight: 41385 Lbs
15:41 Wind: 359º @ 013 Knots Heading: 019º
15:41 POS N38º 10´ 33´´ E013º 05´ 27´´
15:41 Gear Up: 114 Knots
15:41 Flaps:2 at 114 Knots
15:42 Flaps:1 at 122 Knots
15:43 Flaps:0 at 141 Knots
15:49 TOC
15:49 Fuel Weight: 2153 Lb
15:56 Wind:330º@024 Knots Heading: 227º Ground Speed: 269 Knots Altitude 10872 ft
16:04 TOD
16:04 Fuel Weight: 1602 Lb
16:11 Wind:329º@028 Knots Heading: 122º Ground Speed: 225 Knots Altitude 5013 ft
16:14 Gear Down: 151 Knots
16:15 Flaps:1 at 137 Knots
16:15 Flaps:2 at 135 Knots
16:15 Flaps:3 at 115 Knots
16:16 Flaps:4 at 104 Knots
16:17 TouchDown:Rate -403 ft/min Speed: 93 Knots
16:17 VATSIM:LICG 151555Z 33012KT 9999 FEW023 SCT030 22/20 Q1011
16:17 Land
16:17 Wind:329º@012 Knots
16:17 Heading: 258º
16:17 Flight Duration: 00:36
16:17 Landing Weight: 40326 Lbs
16:17 POS N36º 48´ 56´´ E011º 57´ 51´´
16:21 Parking brakes on
16:21 Block to Block Duration: 00:47
16:21 Final Fuel: 1399 Lbls
16:21 Spent Fuel: 1199 Lbls
16:21 Flight Length: 137 NM
16:21 TOD Land Length: 44 NM

Exportar CSV

Powered by Drupal - Modified by Danger4k